• Join FlightAware (Why Join?)
  • Login
  • US Flag 
02:32PM EST


 

Airport Tracker/Info


-or-


 

Live Flight TrackerFlight Track Log ✈ N465TP ✈ 27-Oct-2013 ✈ KCOD - KUDD

Flight Track Log - Related Links

Times and Time Zones

All times are in EDT time to prevent confusion due to time zone crossing. See the N465TP flight status page for this flight to view local times or setup timezone preferences in your user account.

Time Position Orientation Groundspeed Altitude Reporting Facility
EDT Latitude Longitude Course Direction KTS MPH feet Rate Location/Type
11:19AM 44.3525 -109.1736 201° Southwest 126 145 12,100  Level Salt Lake Center
11:20AM 44.3125 -109.1953 201° Southwest 152 175 13,200 1,020 Climbing Salt Lake Center
11:21AM 44.2758 -109.2278 212° Southwest 155 178 14,200 900 Climbing Salt Lake Center
11:22AM 44.2350 -109.2592 209° Southwest 162 186 15,100 900 Climbing Salt Lake Center
11:23AM 44.1919 -109.2911 208° Southwest 172 198 16,100 960 Climbing Salt Lake Center
11:24AM 44.1478 -109.3231 207° Southwest 175 201 17,100 1,080 Climbing Salt Lake Center
11:25AM 44.0947 -109.3656 210° Southwest 181 208 18,400 1,200 Climbing Salt Lake Center
11:26AM 44.0483 -109.3983 207° Southwest 185 213 19,600 1,020 Climbing Salt Lake Center
11:27AM 44.0022 -109.4325 208° Southwest 188 216 20,600 960 Climbing Salt Lake Center
11:28AM 43.9575 -109.4675 209° Southwest 186 214 21,600 960 Climbing Salt Lake Center
11:29AM 43.9100 -109.5033 209° Southwest 185 213 22,600 900 Climbing Salt Lake Center
11:30AM 43.8647 -109.5356 207° Southwest 189 217 23,500 900 Climbing Salt Lake Center
11:31AM 43.8119 -109.5747 208° Southwest 192 221 24,500 900 Climbing Salt Lake Center
11:32AM 43.7686 -109.6083 209° Southwest 188 216 25,400 1,020 Climbing Salt Lake Center
11:33AM 43.7144 -109.6503 209° Southwest 198 228 26,600 900 Climbing Salt Lake Center
11:34AM 43.6683 -109.6831 207° Southwest 194 223 27,300 660 Climbing Salt Lake Center
11:35AM 43.6131 -109.7258 209° Southwest 204 235 28,000 300 Climbing Salt Lake Center
11:36AM 43.5597 -109.7650 208° Southwest 223 257 28,000  Level Salt Lake Center
11:37AM 43.5039 -109.8058 208° Southwest 237 273 28,000  Level Salt Lake Center
11:38AM 43.4408 -109.8531 209° Southwest 242 278 28,000  Level Salt Lake Center
11:39AM 43.3747 -109.8986 207° Southwest 240 276 28,000  Level Salt Lake Center
11:40AM 43.3175 -109.9417 209° Southwest 243 280 28,000 -60 Level Salt Lake Center
11:41AM 43.2503 -109.9903 208° Southwest 244 281 27,900  Descending Salt Lake Center
11:42AM 43.1978 -110.0306 209° Southwest 245 282 28,000  Climbing Salt Lake Center
11:43AM 43.1306 -110.0794 208° Southwest 245 282 28,000  Level Salt Lake Center
11:44AM 43.0719 -110.1228 208° Southwest 247 284 28,000  Level Salt Lake Center
11:45AM 43.0058 -110.1703 208° Southwest 242 278 28,000  Level Salt Lake Center
11:46AM 42.9481 -110.2103 207° Southwest 241 277 28,000  Level Salt Lake Center
11:47AM 42.8789 -110.2614 208° Southwest 249 287 28,000  Level Salt Lake Center
11:48AM 42.8200 -110.3039 208° Southwest 250 288 28,000 -60 Level Salt Lake Center
11:49AM 42.7619 -110.3461 208° Southwest 249 287 27,900  Descending Salt Lake Center
11:50AM 42.6892 -110.3969 207° Southwest 248 285 28,000  Climbing Salt Lake Center
11:52AM 42.6308 -110.4386 208° Southwest 248 285 28,000  Level Salt Lake Center
11:53AM 42.5728 -110.4806 208° Southwest 248 285 28,000  Level Salt Lake Center
11:54AM 42.5056 -110.5281 208° Southwest 244 281 28,000  Level Salt Lake Center
11:55AM 42.4489 -110.5686 208° Southwest 241 277 28,000  Level Salt Lake Center
11:56AM 42.3825 -110.6153 207° Southwest 242 278 28,000  Level Salt Lake Center
11:57AM 42.3261 -110.6564 208° Southwest 242 278 28,000  Level Salt Lake Center
11:58AM 42.2597 -110.7028 207° Southwest 240 276 28,000  Level Salt Lake Center
11:59AM 42.2019 -110.7417 207° Southwest 242 278 28,000  Level Salt Lake Center
12:00PM 42.1442 -110.7822 207° Southwest 242 278 28,000  Level Salt Lake Center
12:01PM 42.0772 -110.8300 208° Southwest 243 280 28,000  Level Salt Lake Center
12:02PM 42.0197 -110.8689 207° Southwest 242 278 28,000  Level Salt Lake Center
12:03PM 41.9528 -110.9164 208° Southwest 244 281 28,000  Level Salt Lake Center
12:04PM 41.9006 -110.9522 207° Southwest 240 276 28,000  Level Salt Lake Center
12:05PM 41.8311 -111.0011 208° Southwest 237 273 28,000  Level Salt Lake Center
12:06PM 41.7731 -111.0417 208° Southwest 237 273 28,000  Level Salt Lake Center
12:07PM 41.7150 -111.0814 207° Southwest 234 269 28,000  Level Salt Lake Center
12:08PM 41.6561 -111.1203 206° Southwest 237 273 28,000  Level Salt Lake Center
12:09PM 41.5969 -111.1619 208° Southwest 239 275 28,000  Level Salt Lake Center
12:10PM 41.5378 -111.2028 207° Southwest 239 275 28,000  Level Salt Lake Center
12:11PM 41.4794 -111.2439 208° Southwest 239 275 28,000  Level Salt Lake Center
12:12PM 41.4083 -111.2917 207° Southwest 238 274 28,000  Level Salt Lake Center
12:13PM 41.3500 -111.3319 207° Southwest 237 273 28,000  Level Salt Lake Center
12:14PM 41.2917 -111.3719 207° Southwest 236 272 28,000  Level Salt Lake Center
12:15PM 41.2336 -111.4114 207° Southwest 236 272 28,000  Level Salt Lake Center
12:16PM 41.1764 -111.4500 207° Southwest 231 266 28,000  Level Salt Lake Center
12:17PM 41.1200 -111.4892 208° Southwest 228 262 28,000  Level Salt Lake Center
12:18PM 41.0639 -111.5267 207° Southwest 226 260 28,000  Level Salt Lake Center
12:19PM 41.0072 -111.5653 207° Southwest 226 260 28,000  Level Salt Lake Center
12:20PM 40.9383 -111.6119 207° Southwest 229 264 28,000  Level Salt Lake Center
12:21PM 40.8806 -111.6497 206° Southwest 231 266 28,000  Level Salt Lake Center
12:22PM 40.8219 -111.6886 207° Southwest 235 270 28,000  Level Salt Lake Center
12:23PM 40.7639 -111.7278 207° Southwest 234 269 28,000  Level Salt Lake Center
12:24PM 40.7069 -111.7658 207° Southwest 227 261 28,000  Level Salt Lake Center
12:25PM 40.6508 -111.8025 206° Southwest 225 259 28,000  Level Salt Lake Center
12:26PM 40.5975 -111.8394 208° Southwest 217 250 28,000  Level Salt Lake Center
12:28PM 40.5431 -111.8750 206° Southwest 219 252 28,000  Level Salt Lake Center
12:29PM 40.4775 -111.9189 207° Southwest 219 252 28,000  Level Salt Lake Center
12:30PM 40.4231 -111.9542 206° Southwest 217 250 28,000  Level Salt Lake Center
12:31PM 40.3703 -111.9897 207° Southwest 215 247 28,000  Level Salt Lake Center
12:32PM 40.3169 -112.0250 207° Southwest 213 245 28,000  Level Salt Lake Center
12:33PM 40.2647 -112.0589 206° Southwest 210 242 28,000  Level Salt Lake Center
12:34PM 40.2106 -112.0950 207° Southwest 219 252 28,000  Level Salt Lake Center
12:35PM 40.1556 -112.1303 206° Southwest 221 254 28,000  Level Salt Lake Center
12:36PM 40.0894 -112.1736 207° Southwest 221 254 28,000  Level Salt Lake Center
12:37PM 40.0344 -112.2103 207° Southwest 221 254 28,000  Level Salt Lake Center
12:38PM 39.9786 -112.2469 207° Southwest 228 262 28,000  Level Salt Lake Center
12:39PM 39.9233 -112.2819 206° Southwest 219 252 28,000  Level Salt Lake Center
12:40PM 39.8678 -112.3183 207° Southwest 222 255 28,000  Level Salt Lake Center
12:41PM 39.8128 -112.3550 207° Southwest 222 255 28,000  Level Salt Lake Center
12:42PM 39.7564 -112.3911 206° Southwest 226 260 28,000  Level Salt Lake Center
12:43PM 39.6889 -112.4350 207° Southwest 226 260 28,000  Level Salt Lake Center
12:44PM 39.6328 -112.4703 206° Southwest 224 258 28,000  Level Salt Lake Center
12:45PM 39.5778 -112.5069 207° Southwest 224 258 28,000  Level Salt Lake Center
12:46PM 39.5211 -112.5439 207° Southwest 227 261 28,000  Level Salt Lake Center
12:47PM 39.4650 -112.5786 206° Southwest 225 259 28,000  Level Salt Lake Center
12:48PM 39.4094 -112.6114 205° Southwest 221 254 28,000  Level Salt Lake Center
12:49PM 39.3525 -112.6469 206° Southwest 225 259 28,000  Level Salt Lake Center
12:50PM 39.2886 -112.6886 207° Southwest 226 260 28,000  Level Salt Lake Center
12:51PM 39.2311 -112.7222 204° Southwest 226 260 28,000  Level Salt Lake Center
12:52PM 39.1744 -112.7622 209° Southwest 230 265 28,000  Level Salt Lake Center
12:53PM 39.1172 -112.7994 207° Southwest 231 266 28,000  Level Salt Lake Center
12:54PM 39.0611 -112.8361 207° Southwest 229 264 28,000  Level Salt Lake Center
12:55PM 38.9919 -112.8783 205° Southwest 229 264 28,000  Level Salt Lake Center
12:56PM 38.9350 -112.9114 204° Southwest 227 261 28,000  Level Salt Lake Center
12:57PM 38.8775 -112.9478 206° Southwest 229 264 28,000  Level Salt Lake Center
12:58PM 38.8200 -112.9833 206° Southwest 230 265 28,000  Level Salt Lake Center
12:59PM 38.7617 -113.0194 206° Southwest 232 267 28,000  Level Salt Lake Center
01:00PM 38.7044 -113.0575 207° Southwest 232 267 28,000  Level Salt Lake Center
01:01PM 38.6456 -113.0922 205° Southwest 233 268 28,000  Level Salt Lake Center
01:02PM 38.5778 -113.1361 207° Southwest 229 264 28,000  Level Salt Lake Center
01:04PM 38.5206 -113.1717 206° Southwest 230 265 28,000  Level Salt Lake Center
01:05PM 38.4622 -113.2083 206° Southwest 232 267 28,000  Level Salt Lake Center
01:06PM 38.4042 -113.2442 206° Southwest 233 268 28,000  Level Salt Lake Center
01:07PM 38.3475 -113.2819 208° Southwest 231 266 28,000  Level Salt Lake Center
01:08PM 38.2892 -113.3153 204° Southwest 231 266 28,000  Level Salt Lake Center
01:09PM 38.2317 -113.3508 206° Southwest 231 266 28,000  Level Salt Lake Center
01:10PM 38.1633 -113.3908 205° Southwest 228 262 28,000  Level Salt Lake Center
01:11PM 38.1064 -113.4242 205° Southwest 226 260 28,000  Level Salt Lake Center
01:12PM 38.0503 -113.4589 206° Southwest 225 259 28,000  Level Salt Lake Center
01:13PM 37.9947 -113.4947 207° Southwest 225 259 28,000  Level Salt Lake Center
01:14PM 37.9392 -113.5306 207° Southwest 225 259 28,000  Level Salt Lake Center
01:15PM 37.8822 -113.5647 205° Southwest 226 260 28,000  Level Salt Lake Center
01:16PM 37.8256 -113.5983 205° Southwest 226 260 28,000  Level Salt Lake Center
01:17PM 37.7589 -113.6394 206° Southwest 224 258 28,000  Level Salt Lake Center
01:18PM 37.7033 -113.6733 206° Southwest 222 255 28,000  Level Salt Lake Center
01:19PM 37.6481 -113.7075 206° Southwest 222 255 28,000  Level Salt Lake Center
01:20PM 37.5928 -113.7411 206° Southwest 221 254 28,000  Level Salt Lake Center
01:21PM 37.5369 -113.7747 206° Southwest 222 255 28,000  Level Salt Lake Center
01:22PM 37.4814 -113.8083 206° Southwest 222 255 28,000  Level Salt Lake Center
01:23PM 37.4144 -113.8483 205° Southwest 222 255 28,000  Level Salt Lake Center
01:24PM 37.3586 -113.8817 205° Southwest 222 255 28,000  Level Salt Lake Center
01:25PM 37.3031 -113.9147 205° Southwest 222 255 28,000  Level Salt Lake Center
01:26PM 37.2483 -113.9492 207° Southwest 221 254 28,000  Level Salt Lake Center
01:27PM 37.1928 -113.9819 205° Southwest 221 254 28,000  Level Salt Lake Center
01:28PM 37.1378 -114.0156 206° Southwest 221 254 28,000  Level Salt Lake Center
01:29PM 37.0808 -114.0475 204° Southwest 223 257 28,000  Level Salt Lake Center
01:30PM 37.0158 -114.0872 206° Southwest 219 252 28,000  Level Salt Lake Center
01:31PM 36.9603 -114.1206 206° Southwest 219 252 28,000  Level Salt Lake Center
01:32PM 36.9042 -114.1531 205° Southwest 221 254 28,000  Level Salt Lake Center
01:34PM 36.8242 -114.1967 204° Southwest 220 253 28,000  Level Los Angeles Center
01:35PM 36.7689 -114.2294 205° Southwest 219 252 28,000  Level Los Angeles Center
01:36PM 36.7142 -114.2617 205° Southwest 218 251 28,000  Level Los Angeles Center
01:37PM 36.6483 -114.2997 205° Southwest 217 250 28,000  Level Los Angeles Center
01:38PM 36.5828 -114.3386 205° Southwest 217 250 28,000  Level Los Angeles Center
01:39PM 36.5281 -114.3700 205° Southwest 216 249 28,000  Level Los Angeles Center
01:40PM 36.4739 -114.4025 206° Southwest 216 249 28,000  Level Los Angeles Center
01:41PM 36.4106 -114.4411 206° Southwest 213 245 28,000  Level Los Angeles Center
01:42PM 36.3561 -114.4725 205° Southwest 214 246 28,000  Level Los Angeles Center
01:43PM 36.2919 -114.5097 205° Southwest 212 244 28,000  Level Los Angeles Center
01:45PM 36.2383 -114.5403 205° Southwest 212 244 28,000  Level Los Angeles Center
01:46PM 36.1844 -114.5725 206° Southwest 213 245 28,000  Level Los Angeles Center
01:47PM 36.1294 -114.6042 205° Southwest 215 247 28,000  Level Los Angeles Center
01:48PM 36.0756 -114.6364 206° Southwest 215 247 28,000  Level Los Angeles Center
01:49PM 36.0214 -114.6664 204° Southwest 213 245 28,000  Level Los Angeles Center
01:50PM 35.9669 -114.6986 206° Southwest 214 246 28,000  Level Los Angeles Center
01:51PM 35.9017 -114.7364 205° Southwest 215 247 28,000  Level Los Angeles Center
01:52PM 35.8481 -114.7678 205° Southwest 213 245 28,000  Level Los Angeles Center
01:53PM 35.7950 -114.7986 205° Southwest 212 244 28,000  Level Los Angeles Center
01:54PM 35.7408 -114.8300 205° Southwest 214 246 28,000  Level Los Angeles Center
01:55PM 35.6881 -114.8597 205° Southwest 209 241 28,000  Level Los Angeles Center
01:56PM 35.6350 -114.8900 205° Southwest 210 242 28,000  Level Los Angeles Center
01:57PM 35.5722 -114.9256 205° Southwest 207 238 28,000  Level Los Angeles Center
01:58PM 35.5192 -114.9561 205° Southwest 210 242 28,000  Level Los Angeles Center
01:59PM 35.4756 -114.9800 204° Southwest 212 244 28,000  Level Los Angeles Center
02:00PM 35.4128 -115.0153 205° Southwest 209 241 28,000 -240 Level Los Angeles Center
02:01PM 35.3600 -115.0475 206° Southwest 209 241 27,600 -480 Descending Los Angeles Center
02:02PM 35.3031 -115.0783 204° Southwest 219 252 27,100 -540 Descending Los Angeles Center
02:03PM 35.2339 -115.1178 205° Southwest 226 260 26,500 -540 Descending Los Angeles Center
02:04PM 35.1756 -115.1519 206° Southwest 231 266 26,000 -480 Descending Los Angeles Center
02:05PM 35.1167 -115.1842 204° Southwest 231 266 25,500 -540 Descending Los Angeles Center
02:06PM 35.0553 -115.2100 199° South 233 268 25,000 -540 Descending Los Angeles Center
02:07PM 34.9869 -115.2406 200° South 236 272 24,500 -540 Descending Los Angeles Center
02:08PM 34.9269 -115.2664 199° South 232 267 24,000 -300 Descending Los Angeles Center
02:09PM 34.8744 -115.2869 198° South 225 259 24,000 -300 Level Los Angeles Center
02:10PM 34.8039 -115.3189 200° South 225 259 23,500 -540 Descending Los Angeles Center
02:11PM 34.7453 -115.3461 201° Southwest 225 259 23,000 -540 Descending Los Angeles Center
02:12PM 34.6869 -115.3686 198° South 221 254 22,500 -540 Descending Los Angeles Center
02:13PM 34.6300 -115.3953 201° Southwest 220 253 22,000 -480 Descending Los Angeles Center
02:15PM 34.5722 -115.4183 198° South 218 251 21,500 -480 Descending Los Angeles Center
02:16PM 34.5150 -115.4439 200° South 218 251 21,000 -540 Descending Los Angeles Center
02:17PM 34.4444 -115.4744 200° South 222 255 20,400 -540 Descending Los Angeles Center
02:18PM 34.3894 -115.5003 201° Southwest 223 257 19,900 -540 Descending Los Angeles Center
02:19PM 34.3356 -115.5233 199° South 218 251 19,400 -540 Descending Los Angeles Center
02:20PM 34.2839 -115.5769 221° Southwest 208 239 18,800 -540 Descending Los Angeles Center
02:21PM 34.2400 -115.6225 221° Southwest 206 237 18,300 -840 Descending Los Angeles Center
02:22PM 34.1975 -115.6694 222° Southwest 208 239 17,100 -1,260 Descending Los Angeles Center
02:23PM 34.1567 -115.7172 224° Southwest 206 237 15,700 -1,260 Descending Los Angeles Center
02:24PM 34.1156 -115.7664 225° Southwest 207 238 14,600 -1,080 Descending Los Angeles Center
02:25PM 34.0561 -115.8142 214° Southwest 212 244 13,500 -780 Descending Los Angeles Center
02:26PM 34.0072 -115.8453 208° Southwest 207 238 13,000 -600 Descending Los Angeles Center
02:27PM 33.9467 -115.8328 170° South 212 244 12,300 -660 Descending Los Angeles Center
02:28PM 33.8908 -115.8247 173° South 209 241 11,700 -780 Descending Los Angeles Center
02:29PM 33.8558 -115.8597 220° Southwest 214 246 10,700 -1,260 Descending Los Angeles Center
02:30PM 33.8392 -115.9239 253° West 210 242 9,200 -1,500 Descending Los Angeles Center
02:31PM 33.8214 -116.0000 254° West 203 234 7,600 -1,080 Descending Los Angeles Center
02:32PM 33.8058 -116.0597 253° West 197 227 7,000 -360 Descending Los Angeles Center
02:33PM 33.7922 -116.1094 252° West 192 221 6,900 -120 Descending Los Angeles Center